Time;durP1;ratioP1;P1;durP2;ratioP2;P2;SDS_P1;SDS_P2;PMS_P1;PMS_P2;Temp;Humidity;BMP_temperature;BMP_pressure;BME280_temperature;BME280_humidity;BME280_pressure;Samples;Min_cycle;Max_cycle;Signal;HPM_P1;HPM_P2
2022/05/30 00:01:21;;;;;;;1.95;1.48;;;8.50;99.90;;;;;;5071445;28;20177;-63
2022/05/30 00:03:47;;;;;;;1.80;1.70;;;8.40;99.90;;;;;;5071601;28;20590;-64
2022/05/30 00:06:17;;;;;;;1.98;1.30;;;8.40;99.90;;;;;;5071562;28;20233;-64
2022/05/30 00:08:43;;;;;;;1.60;1.25;;;8.40;99.90;;;;;;5067802;28;20216;-64
2022/05/30 00:11:11;;;;;;;2.33;1.40;;;8.40;99.90;;;;;;5071598;28;20176;-64
2022/05/30 00:13:37;;;;;;;1.50;1.30;;;8.30;99.90;;;;;;5071272;28;20187;-64
2022/05/30 00:16:09;;;;;;;2.03;1.48;;;8.30;99.90;;;;;;5062143;28;20631;-63
2022/05/30 00:18:35;;;;;;;2.75;1.48;;;8.30;99.90;;;;;;5068165;28;20241;-64
2022/05/30 00:21:01;;;;;;;3.17;1.35;;;8.20;99.90;;;;;;5070832;28;20636;-64
2022/05/30 00:23:27;;;;;;;1.30;1.20;;;8.20;99.90;;;;;;5071683;28;20611;-64
2022/05/30 00:25:52;;;;;;;2.75;1.65;;;8.20;99.90;;;;;;5069836;28;20263;-64
2022/05/30 00:28:18;;;;;;;2.22;1.30;;;8.20;99.90;;;;;;5071568;28;20232;-63
2022/05/30 00:30:46;;;;;;;2.58;1.30;;;8.20;99.90;;;;;;5071101;28;20208;-64
2022/05/30 00:33:12;;;;;;;2.50;1.35;;;8.20;99.90;;;;;;5071812;28;20172;-64
2022/05/30 00:35:39;;;;;;;1.52;1.42;;;8.20;99.90;;;;;;5071477;28;20176;-64
2022/05/30 00:38:04;;;;;;;2.70;1.40;;;8.10;99.90;;;;;;5071290;28;20177;-64
2022/05/30 00:40:31;;;;;;;1.40;1.25;;;8.10;99.90;;;;;;5071493;28;20238;-64
2022/05/30 00:43:15;;;;;;;5.70;1.50;;;8.10;99.90;;;;;;5071430;28;20208;-64
2022/05/30 00:45:41;;;;;;;2.05;1.40;;;8.10;99.90;;;;;;5063533;28;20203;-63
2022/05/30 00:48:08;;;;;;;1.40;1.33;;;8.10;99.90;;;;;;5071404;28;20216;-64
2022/05/30 00:50:34;;;;;;;4.57;1.58;;;8.00;99.90;;;;;;5071447;28;20184;-62
2022/05/30 00:53:00;;;;;;;1.95;1.40;;;8.00;99.90;;;;;;5070866;28;20184;-63
2022/05/30 00:55:26;;;;;;;1.98;1.60;;;8.00;99.90;;;;;;5070857;28;20192;-63
2022/05/30 00:57:51;;;;;;;1.50;1.40;;;7.90;99.90;;;;;;5071427;28;20185;-63
2022/05/30 01:00:21;;;;;;;2.30;1.40;;;7.90;99.90;;;;;;5070675;28;20183;-64
2022/05/30 01:08:16;;;;;;;3.50;1.63;;;7.90;99.90;;;;;;5074525;28;20224;-63
2022/05/30 01:10:41;;;;;;;3.30;1.40;;;7.90;99.90;;;;;;5075080;28;20177;-64
2022/05/30 01:13:11;;;;;;;2.55;1.50;;;7.90;99.90;;;;;;5073329;28;20517;-64
2022/05/30 01:15:36;;;;;;;1.80;1.60;;;7.90;99.90;;;;;;5074571;28;20192;-63
2022/05/30 01:18:27;;;;;;;3.92;1.85;;;7.90;99.90;;;;;;5073351;28;20212;-63
2022/05/30 01:21:29;;;;;;;2.72;1.63;;;7.80;99.90;;;;;;5066506;28;20339;-63
2022/05/30 01:24:01;;;;;;;2.20;1.48;;;7.80;99.90;;;;;;5074080;28;20218;-63
2022/05/30 01:26:45;;;;;;;1.67;1.40;;;7.80;99.90;;;;;;5074530;28;20177;-63
2022/05/30 01:29:20;;;;;;;2.38;1.60;;;7.80;99.90;;;;;;5074808;28;20212;-63
2022/05/30 01:31:46;;;;;;;2.58;1.50;;;7.80;99.90;;;;;;5073304;28;20176;-63
2022/05/30 01:34:12;;;;;;;1.85;1.60;;;7.80;99.90;;;;;;5074269;28;20734;-63
2022/05/30 01:36:38;;;;;;;2.75;1.67;;;7.80;99.90;;;;;;5074108;28;20554;-63
2022/05/30 01:39:04;;;;;;;3.35;1.77;;;7.70;99.90;;;;;;5074224;28;20185;-63
2022/05/30 01:41:30;;;;;;;2.63;2.05;;;7.70;99.90;;;;;;5073762;28;20184;-63
2022/05/30 01:43:56;;;;;;;3.05;1.90;;;7.70;99.90;;;;;;5074319;28;20192;-63
2022/05/30 01:46:24;;;;;;;3.00;1.83;;;7.70;99.90;;;;;;5074116;28;20176;-63
2022/05/30 01:48:50;;;;;;;3.42;1.73;;;7.70;99.90;;;;;;5074436;28;20220;-63
2022/05/30 01:51:17;;;;;;;1.80;1.70;;;7.60;99.90;;;;;;5074020;28;20177;-63
2022/05/30 01:53:43;;;;;;;2.00;1.80;;;7.60;99.90;;;;;;5072609;28;20185;-63
2022/05/30 01:56:09;;;;;;;1.83;1.70;;;7.60;99.90;;;;;;5074402;28;20188;-63
2022/05/30 01:58:35;;;;;;;2.25;1.80;;;7.60;99.90;;;;;;5073873;28;20704;-63
2022/05/30 02:01:13;;;;;;;2.25;1.70;;;7.60;99.90;;;;;;5074175;28;20268;-63
2022/05/30 02:03:39;;;;;;;2.40;1.50;;;7.60;99.90;;;;;;5074142;28;20211;-63
2022/05/30 02:06:04;;;;;;;1.85;1.55;;;7.50;99.90;;;;;;5070898;28;20722;-63
2022/05/30 02:08:30;;;;;;;3.10;1.70;;;7.50;99.90;;;;;;5073919;28;20216;-64
2022/05/30 02:10:55;;;;;;;1.60;1.40;;;7.40;99.90;;;;;;5073653;28;20721;-64
2022/05/30 02:13:21;;;;;;;4.22;1.60;;;7.40;99.90;;;;;;5073443;28;20208;-64
2022/05/30 02:18:31;;;;;;;2.67;1.73;;;7.30;99.90;;;;;;5073188;28;20236;-63
2022/05/30 02:20:56;;;;;;;2.80;1.50;;;7.20;99.90;;;;;;5068691;28;20185;-63
2022/05/30 02:23:22;;;;;;;2.78;1.65;;;7.20;99.90;;;;;;5069731;28;20521;-64
2022/05/30 02:25:48;;;;;;;1.83;1.55;;;7.20;99.90;;;;;;5073406;28;20532;-63
2022/05/30 02:28:14;;;;;;;1.77;1.67;;;7.10;99.90;;;;;;5072913;28;20303;-63
2022/05/30 02:30:39;;;;;;;2.22;1.85;;;7.10;99.90;;;;;;5073159;28;20263;-63
2022/05/30 02:38:33;;;;;;;2.50;1.85;;;7.00;99.90;;;;;;5054875;28;20251;-63
2022/05/30 02:40:59;;;;;;;3.20;1.80;;;7.00;99.90;;;;;;5072849;28;20185;-64
2022/05/30 02:43:24;;;;;;;4.15;2.13;;;7.00;99.90;;;;;;5072983;28;20172;-63
2022/05/30 02:45:50;;;;;;;1.70;1.60;;;7.00;99.90;;;;;;5072632;28;20181;-63
2022/05/30 02:48:15;;;;;;;1.80;1.70;;;7.00;99.90;;;;;;5072456;28;20209;-64
2022/05/30 02:50:41;;;;;;;2.65;1.58;;;7.00;99.90;;;;;;5072576;28;20583;-63
2022/05/30 02:53:06;;;;;;;2.97;1.55;;;6.90;99.90;;;;;;5072763;28;20884;-63
2022/05/30 02:55:32;;;;;;;2.45;1.70;;;6.90;99.90;;;;;;5072783;28;20589;-63
2022/05/30 02:57:57;;;;;;;1.60;1.50;;;6.80;99.90;;;;;;5072554;28;20635;-63
2022/05/30 03:00:26;;;;;;;4.20;1.80;;;6.90;99.90;;;;;;5072359;28;20206;-63
2022/05/30 03:02:52;;;;;;;2.50;1.85;;;6.90;99.90;;;;;;5072883;28;20184;-63
2022/05/30 03:05:17;;;;;;;2.50;2.30;;;6.80;99.90;;;;;;5072067;28;20184;-63
2022/05/30 03:07:43;;;;;;;4.47;2.20;;;6.70;99.90;;;;;;5072291;28;20269;-63
2022/05/30 03:10:09;;;;;;;4.68;2.03;;;6.70;99.90;;;;;;5072204;28;20181;-63
2022/05/30 03:12:34;;;;;;;3.08;2.00;;;6.60;99.90;;;;;;5071375;28;20188;-63
2022/05/30 03:15:00;;;;;;;3.22;1.98;;;6.60;99.90;;;;;;5072316;28;20172;-63
2022/05/30 03:17:25;;;;;;;2.95;2.13;;;6.60;99.90;;;;;;5072070;28;20272;-62
2022/05/30 03:19:52;;;;;;;3.38;2.10;;;6.60;99.90;;;;;;5072120;28;20220;-63
2022/05/30 03:22:18;;;;;;;2.88;1.90;;;6.60;99.90;;;;;;5072319;28;20181;-63
2022/05/30 03:24:44;;;;;;;2.20;2.00;;;6.70;99.90;;;;;;5071694;28;20181;-63
2022/05/30 03:27:10;;;;;;;2.90;2.10;;;6.60;99.90;;;;;;5070722;28;20242;-63
2022/05/30 03:29:35;;;;;;;2.65;1.98;;;6.60;99.90;;;;;;5071518;28;20631;-63
2022/05/30 03:32:01;;;;;;;2.20;1.88;;;6.60;99.90;;;;;;5072242;28;20180;-63
2022/05/30 03:34:26;;;;;;;2.00;1.80;;;6.50;99.90;;;;;;5071737;28;20173;-65
2022/05/30 03:36:52;;;;;;;5.65;2.20;;;6.50;99.90;;;;;;5088624;28;20176;-66
2022/05/30 03:39:17;;;;;;;4.55;2.03;;;6.40;99.90;;;;;;5072547;28;20188;-66
2022/05/30 03:41:43;;;;;;;1.75;1.52;;;6.40;99.90;;;;;;5072431;28;20235;-64
2022/05/30 03:44:08;;;;;;;2.13;1.60;;;6.40;99.90;;;;;;5071384;28;20219;-63
2022/05/30 03:46:34;;;;;;;2.13;1.50;;;6.40;99.90;;;;;;5071934;28;20185;-64
2022/05/30 03:49:00;;;;;;;1.70;1.60;;;6.40;99.90;;;;;;5071497;28;20646;-67
2022/05/30 03:51:25;;;;;;;1.92;1.52;;;6.40;99.90;;;;;;5071746;28;20195;-67
2022/05/30 03:53:52;;;;;;;2.65;1.67;;;6.40;99.90;;;;;;5071893;28;20185;-63
2022/05/30 03:56:20;;;;;;;3.63;1.60;;;6.40;99.90;;;;;;5071473;28;20181;-63
2022/05/30 03:58:46;;;;;;;5.25;1.92;;;6.40;99.90;;;;;;5071423;28;20264;-63
2022/05/30 04:01:12;;;;;;;2.17;1.83;;;6.50;99.90;;;;;;5071038;28;20326;-64
2022/05/30 04:03:39;;;;;;;2.28;1.58;;;6.50;99.90;;;;;;5071429;28;20199;-64
2022/05/30 04:06:05;;;;;;;2.30;1.38;;;6.50;99.90;;;;;;5069464;28;20188;-65
2022/05/30 04:08:30;;;;;;;3.05;1.80;;;6.50;99.90;;;;;;5071235;28;20217;-65
2022/05/30 04:10:56;;;;;;;3.33;2.10;;;6.50;99.90;;;;;;5071836;28;20188;-63
2022/05/30 04:13:22;;;;;;;5.18;2.60;;;6.60;99.90;;;;;;5071436;28;20177;-62
2022/05/30 04:15:48;;;;;;;5.75;2.00;;;6.60;99.90;;;;;;5071890;28;20184;-64
2022/05/30 04:18:13;;;;;;;4.20;2.00;;;6.60;99.90;;;;;;5071691;28;20582;-63
2022/05/30 04:20:41;;;;;;;1.67;1.58;;;6.70;99.90;;;;;;5071263;28;20184;-63
2022/05/30 04:23:06;;;;;;;2.50;1.92;;;6.90;99.90;;;;;;5071436;28;20181;-63
2022/05/30 04:25:33;;;;;;;2.85;1.60;;;7.10;99.90;;;;;;5071395;28;20177;-62
2022/05/30 04:27:59;;;;;;;1.50;1.40;;;7.40;99.90;;;;;;5070791;28;20216;-66
2022/05/30 04:30:25;;;;;;;2.38;1.80;;;7.70;99.90;;;;;;5071669;28;20195;-63
2022/05/30 04:32:51;;;;;;;2.70;1.65;;;8.20;99.90;;;;;;5072113;28;20535;-63
2022/05/30 04:35:18;;;;;;;2.85;2.00;;;8.60;99.90;;;;;;5070581;28;20548;-61
2022/05/30 04:37:46;;;;;;;2.35;2.00;;;9.10;99.90;;;;;;5070782;28;20282;-64
2022/05/30 04:40:17;;;;;;;3.33;1.80;;;9.60;99.90;;;;;;5070848;28;20181;-64
2022/05/30 04:42:44;;;;;;;3.13;1.75;;;10.00;99.90;;;;;;5073454;28;20266;-64
2022/05/30 04:45:10;;;;;;;4.20;2.47;;;10.50;99.90;;;;;;5075550;28;20650;-65
2022/05/30 04:47:36;;;;;;;2.28;2.00;;;10.90;99.90;;;;;;5075715;28;20344;-64
2022/05/30 04:50:04;;;;;;;2.33;1.70;;;11.40;99.90;;;;;;5075978;28;20744;-64
2022/05/30 04:52:30;;;;;;;2.58;1.77;;;11.80;99.50;;;;;;5075596;28;20176;-64
2022/05/30 04:54:56;;;;;;;2.40;1.88;;;12.10;98.50;;;;;;5075825;28;20172;-64
2022/05/30 04:57:21;;;;;;;2.38;1.80;;;12.40;98.20;;;;;;5075666;28;20185;-65
2022/05/30 04:59:47;;;;;;;2.15;1.58;;;12.70;97.80;;;;;;5075634;28;20238;-64
2022/05/30 05:02:14;;;;;;;2.60;1.73;;;13.10;97.30;;;;;;5075697;28;20184;-64
2022/05/30 05:04:41;;;;;;;2.80;1.60;;;13.50;96.10;;;;;;5075643;28;20757;-64
2022/05/30 05:07:08;;;;;;;1.77;1.50;;;13.80;95.20;;;;;;5075410;28;20719;-64
2022/05/30 05:09:47;;;;;;;2.10;1.73;;;14.20;94.80;;;;;;5075409;28;20184;-64
2022/05/30 05:12:12;;;;;;;3.22;1.98;;;14.50;93.90;;;;;;5075550;28;20243;-64
2022/05/30 05:14:38;;;;;;;3.00;1.90;;;14.70;93.10;;;;;;5075331;28;20172;-64
2022/05/30 05:17:08;;;;;;;3.28;1.73;;;14.80;92.50;;;;;;5075394;28;20643;-64
2022/05/30 05:19:36;;;;;;;2.03;1.80;;;15.20;92.20;;;;;;5075306;28;20240;-64
2022/05/30 05:22:01;;;;;;;2.03;1.75;;;15.50;91.80;;;;;;5065343;28;20639;-64
2022/05/30 05:24:27;;;;;;;2.80;1.90;;;15.80;90.80;;;;;;5075076;28;20177;-64
2022/05/30 05:26:53;;;;;;;1.80;1.50;;;16.10;90.20;;;;;;5075250;28;20172;-64
2022/05/30 05:29:18;;;;;;;6.22;1.90;;;16.10;89.00;;;;;;5075089;28;20212;-64
2022/05/30 05:31:45;;;;;;;2.97;2.10;;;16.30;88.90;;;;;;5075082;28;20173;-64
2022/05/30 05:34:13;;;;;;;2.88;2.10;;;16.50;87.50;;;;;;5075035;28;20177;-64
2022/05/30 05:36:41;;;;;;;2.35;1.70;;;16.70;86.30;;;;;;5074930;28;20173;-64
2022/05/30 05:39:08;;;;;;;2.03;1.80;;;16.80;84.50;;;;;;5074997;28;20177;-64
2022/05/30 05:41:34;;;;;;;3.67;1.90;;;16.90;84.30;;;;;;5074905;28;20196;-64
2022/05/30 05:43:59;;;;;;;3.28;1.88;;;17.20;83.30;;;;;;5074851;28;20169;-64
2022/05/30 05:46:28;;;;;;;2.08;1.77;;;17.30;82.90;;;;;;5074800;28;20207;-64
2022/05/30 05:48:55;;;;;;;4.80;1.90;;;17.60;82.60;;;;;;5074722;28;20212;-64
2022/05/30 05:51:22;;;;;;;2.20;1.60;;;18.00;80.80;;;;;;5074722;28;20697;-64
2022/05/30 05:53:48;;;;;;;3.10;1.77;;;18.30;79.30;;;;;;5074181;28;20177;-64
2022/05/30 05:56:17;;;;;;;1.65;1.55;;;18.60;78.60;;;;;;5074917;28;20648;-64
2022/05/30 05:58:43;;;;;;;1.73;1.60;;;19.10;77.80;;;;;;5073370;28;20267;-64
2022/05/30 06:01:11;;;;;;;2.00;1.45;;;19.50;75.10;;;;;;5074531;28;20263;-64
2022/05/30 06:03:37;;;;;;;2.58;1.73;;;20.00;73.40;;;;;;5074385;28;20180;-65
2022/05/30 06:06:06;;;;;;;4.15;1.70;;;20.40;71.00;;;;;;5074527;28;20181;-64
2022/05/30 06:08:32;;;;;;;3.35;1.80;;;20.30;70.10;;;;;;5074189;28;20228;-64
2022/05/30 06:11:14;;;;;;;1.98;1.70;;;20.50;69.60;;;;;;5074534;28;20216;-64
2022/05/30 06:13:42;;;;;;;2.40;1.60;;;20.70;69.10;;;;;;5074456;28;20180;-64
2022/05/30 06:16:13;;;;;;;2.10;1.60;;;21.10;67.50;;;;;;5074324;28;20691;-64
2022/05/30 06:18:39;;;;;;;1.80;1.60;;;21.40;66.30;;;;;;5074174;28;20326;-64
2022/05/30 06:21:05;;;;;;;2.03;1.70;;;21.70;65.10;;;;;;5068659;28;20197;-65
2022/05/30 06:23:31;;;;;;;1.70;1.60;;;22.00;63.80;;;;;;5070025;28;20169;-65
2022/05/30 06:25:59;;;;;;;4.25;1.77;;;22.10;62.40;;;;;;5074241;28;20187;-65
2022/05/30 06:28:24;;;;;;;4.28;2.05;;;22.10;62.50;;;;;;5073927;28;20216;-65
2022/05/30 06:30:50;;;;;;;3.13;1.90;;;22.70;61.90;;;;;;5074094;28;20177;-65
2022/05/30 06:33:15;;;;;;;3.33;2.17;;;23.10;60.50;;;;;;5074115;28;20173;-65
2022/05/30 06:35:44;;;;;;;3.78;2.50;;;23.40;59.30;;;;;;5073976;28;20654;-64
2022/05/30 06:38:10;;;;;;;3.25;2.75;;;23.70;58.40;;;;;;5073949;28;20268;-64
2022/05/30 06:40:36;;;;;;;4.22;2.63;;;24.00;57.70;;;;;;5073789;28;20187;-64
2022/05/30 06:43:02;;;;;;;5.63;2.20;;;24.00;56.50;;;;;;5074135;28;20173;-64
2022/05/30 06:45:28;;;;;;;3.55;1.90;;;24.00;56.80;;;;;;5073671;28;20177;-65
2022/05/30 06:47:54;;;;;;;2.85;1.95;;;24.30;55.80;;;;;;5073704;28;20212;-64
2022/05/30 06:50:19;;;;;;;5.25;2.40;;;24.70;55.60;;;;;;5073627;28;20177;-65
2022/05/30 06:52:45;;;;;;;3.00;1.77;;;24.80;54.60;;;;;;5073667;28;20199;-64
2022/05/30 06:55:11;;;;;;;2.50;1.67;;;24.60;54.40;;;;;;5073482;28;20191;-64
2022/05/30 07:00:20;;;;;;;2.38;1.60;;;24.50;54.00;;;;;;5073483;28;20180;-64
2022/05/30 07:02:46;;;;;;;2.65;1.80;;;24.80;53.90;;;;;;5073394;28;20557;-64
2022/05/30 07:05:12;;;;;;;2.75;1.55;;;25.00;53.00;;;;;;5072592;28;20179;-64
2022/05/30 07:07:39;;;;;;;1.85;1.60;;;24.70;52.30;;;;;;5073154;28;20300;-64
2022/05/30 07:10:05;;;;;;;3.28;1.40;;;24.70;53.00;;;;;;5073520;28;20177;-64
2022/05/30 07:12:31;;;;;;;2.17;1.60;;;24.70;52.80;;;;;;5073123;28;20200;-64
2022/05/30 07:14:57;;;;;;;2.38;1.30;;;24.70;52.50;;;;;;5073338;28;20592;-64
2022/05/30 07:17:25;;;;;;;1.98;1.30;;;24.90;52.30;;;;;;5073129;28;20268;-64
2022/05/30 07:19:51;;;;;;;2.15;1.42;;;24.90;52.60;;;;;;5072829;28;20282;-64
2022/05/30 07:22:17;;;;;;;1.90;1.60;;;25.00;52.80;;;;;;5071635;28;20176;-64
2022/05/30 07:24:43;;;;;;;1.80;1.30;;;25.00;52.10;;;;;;5072778;28;20188;-64
2022/05/30 07:27:09;;;;;;;2.40;1.30;;;25.10;52.30;;;;;;5072757;28;20568;-64
2022/05/30 07:29:34;;;;;;;1.95;1.40;;;25.50;52.30;;;;;;5072871;28;20259;-64
2022/05/30 07:32:01;;;;;;;2.17;1.60;;;25.40;51.00;;;;;;5072952;28;20625;-64
2022/05/30 07:34:28;;;;;;;1.50;1.40;;;25.50;50.90;;;;;;5072684;28;20185;-64
2022/05/30 07:36:53;;;;;;;2.13;1.40;;;25.20;51.50;;;;;;5072896;28;20179;-64
2022/05/30 07:39:19;;;;;;;1.65;1.55;;;25.30;52.60;;;;;;5072767;28;20176;-64
2022/05/30 07:41:45;;;;;;;4.60;1.52;;;25.40;50.80;;;;;;5072698;28;20650;-64
2022/05/30 07:44:10;;;;;;;1.65;1.25;;;25.40;50.90;;;;;;5072761;28;20180;-64
2022/05/30 07:46:39;;;;;;;2.65;1.60;;;25.50;51.60;;;;;;5072607;28;20268;-64
2022/05/30 07:49:04;;;;;;;5.35;1.90;;;25.70;50.60;;;;;;5071395;28;20577;-64
2022/05/30 07:51:30;;;;;;;2.97;1.83;;;25.80;51.00;;;;;;5072718;28;20179;-64
2022/05/30 07:53:55;;;;;;;1.35;1.25;;;26.00;50.20;;;;;;5072550;28;20191;-64
2022/05/30 07:56:21;;;;;;;2.58;1.38;;;26.30;50.20;;;;;;5072521;28;20173;-64
2022/05/30 07:58:47;;;;;;;3.63;1.63;;;26.30;50.00;;;;;;5072524;28;20180;-65
2022/05/30 08:01:18;;;;;;;3.70;1.40;;;26.50;49.80;;;;;;5072495;28;20165;-64
2022/05/30 08:03:45;;;;;;;1.95;1.45;;;26.70;50.00;;;;;;5072427;28;20654;-64
2022/05/30 08:06:14;;;;;;;3.17;1.60;;;26.90;49.50;;;;;;5072355;28;20183;-64
2022/05/30 08:08:41;;;;;;;2.13;1.45;;;27.00;49.50;;;;;;5072291;28;20274;-64
2022/05/30 08:11:06;;;;;;;2.63;1.30;;;27.10;49.00;;;;;;5072346;28;20189;-64
2022/05/30 08:13:32;;;;;;;1.55;1.30;;;27.30;48.60;;;;;;5072375;28;20195;-64
2022/05/30 08:15:58;;;;;;;1.77;1.33;;;27.40;48.70;;;;;;5072190;28;20627;-64
2022/05/30 08:18:24;;;;;;;2.10;1.15;;;27.40;48.70;;;;;;5072129;28;20224;-64
2022/05/30 08:20:49;;;;;;;1.77;1.40;;;27.30;47.10;;;;;;5068715;28;20224;-64
2022/05/30 08:23:15;;;;;;;2.35;1.50;;;27.30;47.10;;;;;;5065960;28;20570;-64
2022/05/30 08:25:43;;;;;;;2.45;1.60;;;27.00;48.00;;;;;;5072426;28;20173;-64
2022/05/30 08:28:08;;;;;;;2.38;1.20;;;26.60;48.60;;;;;;5071908;28;20694;-64
2022/05/30 08:30:34;;;;;;;1.50;1.30;;;26.50;49.20;;;;;;5072167;28;20173;-64
2022/05/30 08:32:59;;;;;;;1.30;1.20;;;26.70;48.90;;;;;;5072172;28;20230;-64
2022/05/30 08:35:25;;;;;;;1.85;1.20;;;26.90;49.10;;;;;;5072118;28;20200;-64
2022/05/30 08:37:57;;;;;;;1.40;1.30;;;27.10;47.70;;;;;;5072089;28;20512;-64
2022/05/30 08:43:34;;;;;;;2.67;1.55;;;26.60;47.60;;;;;;5072101;28;20176;-64
2022/05/30 08:46:16;;;;;;;1.80;1.30;;;26.20;48.70;;;;;;5072129;28;20211;-64
2022/05/30 08:49:10;;;;;;;3.45;1.77;;;26.20;48.80;;;;;;5071926;28;20270;-64
2022/05/30 08:52:01;;;;;;;1.98;1.50;;;26.50;48.10;;;;;;5072000;28;20169;-64
2022/05/30 08:54:58;;;;;;;1.23;1.13;;;26.60;47.00;;;;;;5071888;28;20255;-64
2022/05/30 08:57:48;;;;;;;3.17;1.40;;;26.80;46.80;;;;;;5071920;28;20173;-64
2022/05/30 09:00:37;;;;;;;2.33;1.30;;;26.50;45.70;;;;;;5071899;28;20173;-64
2022/05/30 09:03:13;;;;;;;1.10;1.10;;;26.30;46.70;;;;;;5071834;28;20255;-64
2022/05/30 09:06:04;;;;;;;2.42;1.58;;;26.30;46.20;;;;;;5071829;28;20173;-64
2022/05/30 09:08:41;;;;;;;3.17;1.42;;;26.30;48.40;;;;;;5071282;28;20232;-64
2022/05/30 09:11:22;;;;;;;1.92;1.33;;;25.80;47.60;;;;;;5071805;28;20693;-64
2022/05/30 09:13:50;;;;;;;2.38;0.98;;;25.70;47.80;;;;;;5071809;28;20184;-64
2022/05/30 09:16:39;;;;;;;2.03;1.40;;;25.90;48.30;;;;;;5071759;28;20603;-63
2022/05/30 09:19:08;;;;;;;1.40;1.30;;;26.20;45.50;;;;;;5071663;28;20220;-64
2022/05/30 09:21:35;;;;;;;2.40;1.58;;;26.20;45.00;;;;;;5061925;28;20174;-63
2022/05/30 09:24:02;;;;;;;1.83;1.27;;;26.10;45.70;;;;;;5050378;28;20564;-63
2022/05/30 09:26:35;;;;;;;2.00;1.30;;;26.00;46.10;;;;;;5057099;28;20184;-64
2022/05/30 09:29:04;;;;;;;2.10;1.50;;;26.30;46.20;;;;;;5074388;28;20220;-64
2022/05/30 09:31:39;;;;;;;2.17;1.50;;;26.50;45.80;;;;;;5075074;28;20181;-64
2022/05/30 09:34:31;;;;;;;2.10;1.30;;;26.30;44.00;;;;;;5075175;28;20172;-64
2022/05/30 09:36:56;;;;;;;3.60;1.35;;;25.70;45.40;;;;;;5075143;28;20177;-64
2022/05/30 09:39:22;;;;;;;1.27;1.17;;;25.40;46.60;;;;;;5075090;28;20177;-64
2022/05/30 09:41:54;;;;;;;2.92;1.30;;;25.40;47.00;;;;;;5075273;28;20252;-64
2022/05/30 09:44:22;;;;;;;2.28;1.38;;;25.70;47.00;;;;;;5074966;28;20263;-64
2022/05/30 09:47:15;;;;;;;1.50;1.30;;;25.80;46.90;;;;;;5074989;28;20181;-63
2022/05/30 09:49:46;;;;;;;2.15;1.40;;;26.20;46.20;;;;;;5074344;28;20201;-64
2022/05/30 09:52:34;;;;;;;2.05;1.20;;;26.70;45.20;;;;;;5074796;28;20181;-64
2022/05/30 09:55:01;;;;;;;1.73;1.40;;;26.90;44.50;;;;;;5074851;28;20661;-64
2022/05/30 09:57:41;;;;;;;2.83;1.48;;;26.90;42.30;;;;;;5074597;28;20576;-63
2022/05/30 10:00:28;;;;;;;1.88;1.30;;;26.70;43.30;;;;;;5074693;28;20176;-64
2022/05/30 10:03:07;;;;;;;3.45;1.42;;;26.90;44.10;;;;;;5074799;28;20187;-63
2022/05/30 10:05:34;;;;;;;2.03;1.60;;;27.10;44.00;;;;;;5074620;28;20177;-64
2022/05/30 10:08:03;;;;;;;3.90;2.38;;;27.40;42.70;;;;;;5074420;28;20702;-64
2022/05/30 10:10:31;;;;;;;2.95;1.50;;;27.50;41.50;;;;;;5074354;28;20647;-64
2022/05/30 10:13:36;;;;;;;1.75;1.40;;;27.40;42.40;;;;;;5074481;28;20176;-64
2022/05/30 10:16:04;;;;;;;2.53;1.48;;;27.30;42.00;;;;;;5074433;28;20164;-63
2022/05/30 10:18:40;;;;;;;2.65;1.40;;;27.10;41.40;;;;;;5074005;28;20270;-64
2022/05/30 10:21:37;;;;;;;2.55;1.30;;;26.80;41.00;;;;;;5074218;28;20312;-64
2022/05/30 10:30:07;;;;;;;1.17;1.13;;;25.40;40.90;;;;;;5074194;28;20242;-63
2022/05/30 10:32:46;;;;;;;2.42;1.40;;;25.20;42.60;;;;;;5074054;28;20172;-64
2022/05/30 10:35:37;;;;;;;1.92;1.38;;;25.00;43.60;;;;;;5074121;28;20230;-64
2022/05/30 10:38:10;;;;;;;1.63;1.17;;;24.90;42.80;;;;;;5074050;28;20184;-64
2022/05/30 10:40:52;;;;;;;2.28;1.08;;;25.10;44.40;;;;;;5073926;28;20173;-64
2022/05/30 10:43:44;;;;;;;1.98;1.13;;;25.50;41.70;;;;;;5073930;28;20267;-64
2022/05/30 10:46:39;;;;;;;2.25;1.48;;;25.90;40.50;;;;;;5073844;28;20583;-64
2022/05/30 10:49:09;;;;;;;1.98;1.10;;;25.90;40.00;;;;;;5073857;28;20212;-64
2022/05/30 10:51:44;;;;;;;1.90;1.20;;;25.50;39.70;;;;;;5073633;28;20181;-64
2022/05/30 10:54:34;;;;;;;1.40;0.98;;;24.90;40.90;;;;;;5073654;28;20168;-64
2022/05/30 10:57:33;;;;;;;1.60;1.05;;;24.40;40.20;;;;;;5072420;28;20246;-63
2022/05/30 11:00:17;;;;;;;1.10;1.08;;;23.70;40.70;;;;;;5072880;28;20651;-63
2022/05/30 11:02:58;;;;;;;1.20;1.10;;;23.10;41.30;;;;;;5073540;28;20195;-63
2022/05/30 11:05:55;;;;;;;1.67;1.42;;;22.90;42.60;;;;;;5073425;28;20183;-63
2022/05/30 11:08:51;;;;;;;1.35;1.10;;;23.20;42.50;;;;;;5073258;28;20227;-63
2022/05/30 11:11:44;;;;;;;1.65;1.00;;;23.80;43.90;;;;;;5073331;28;20200;-63
2022/05/30 11:14:39;;;;;;;1.38;1.25;;;24.40;44.50;;;;;;5073298;28;20242;-63
2022/05/30 11:17:33;;;;;;;2.25;1.10;;;24.90;44.50;;;;;;5073327;28;20173;-63
2022/05/30 11:20:05;;;;;;;1.08;1.08;;;25.40;45.10;;;;;;5073220;28;20196;-63
2022/05/30 11:22:39;;;;;;;2.22;1.50;;;25.60;43.40;;;;;;5072856;28;20242;-63
2022/05/30 11:25:14;;;;;;;2.25;1.20;;;25.30;42.70;;;;;;5073165;28;20177;-63
2022/05/30 11:27:55;;;;;;;2.13;1.20;;;24.90;43.40;;;;;;5072820;28;20195;-63
2022/05/30 11:31:06;;;;;;;2.17;0.93;;;24.50;43.90;;;;;;5072968;28;20253;-63
2022/05/30 11:33:48;;;;;;;1.30;1.20;;;23.90;43.60;;;;;;5072843;28;20222;-63
2022/05/30 11:36:38;;;;;;;3.03;1.30;;;23.60;44.80;;;;;;5072917;28;20234;-63
2022/05/30 11:39:12;;;;;;;1.35;1.20;;;23.90;44.90;;;;;;5072937;28;20544;-63
2022/05/30 11:42:03;;;;;;;1.25;1.10;;;24.40;45.40;;;;;;5072834;28;20196;-64
2022/05/30 11:44:51;;;;;;;1.30;1.20;;;24.30;43.60;;;;;;5072628;28;20259;-64
2022/05/30 11:47:31;;;;;;;1.20;1.10;;;24.70;43.90;;;;;;5072589;28;20784;-64
2022/05/30 11:50:36;;;;;;;2.05;1.20;;;24.80;42.50;;;;;;5072346;28;20177;-63
2022/05/30 11:53:39;;;;;;;2.97;1.10;;;25.10;42.70;;;;;;5072247;28;20185;-64
2022/05/30 11:56:31;;;;;;;1.80;1.20;;;25.40;42.80;;;;;;5072657;28;20175;-63
2022/05/30 11:59:31;;;;;;;1.27;1.10;;;25.70;41.70;;;;;;5072718;28;20181;-63
2022/05/30 12:01:59;;;;;;;1.65;1.30;;;26.30;41.90;;;;;;5072627;28;20188;-64
2022/05/30 12:04:55;;;;;;;1.95;1.10;;;26.60;40.60;;;;;;5072447;28;20264;-64
2022/05/30 12:07:39;;;;;;;1.08;0.98;;;26.80;39.20;;;;;;5072369;28;20682;-64
2022/05/30 12:10:26;;;;;;;1.27;1.17;;;26.50;39.10;;;;;;5072504;28;20508;-64
2022/05/30 12:13:16;;;;;;;1.45;1.20;;;25.40;41.40;;;;;;5072575;28;20181;-63
2022/05/30 12:16:03;;;;;;;1.20;1.17;;;24.60;43.50;;;;;;5072292;28;20189;-63
2022/05/30 12:24:23;;;;;;;1.30;1.20;;;24.70;44.10;;;;;;5072276;28;20713;-63
2022/05/30 12:26:57;;;;;;;2.00;1.23;;;24.70;43.20;;;;;;5072188;28;20180;-63
2022/05/30 12:29:37;;;;;;;1.30;1.20;;;24.70;43.40;;;;;;5072146;28;20230;-63
2022/05/30 12:32:36;;;;;;;1.10;1.10;;;24.60;42.60;;;;;;5072265;28;20251;-63
2022/05/30 12:35:28;;;;;;;2.08;0.90;;;24.10;42.40;;;;;;5072352;28;20187;-63
2022/05/30 12:38:13;;;;;;;1.35;1.10;;;23.70;44.10;;;;;;5070964;28;20543;-64
2022/05/30 12:40:45;;;;;;;1.80;1.00;;;23.70;42.80;;;;;;5072056;28;20653;-64
2022/05/30 12:43:23;;;;;;;1.40;1.30;;;23.40;42.60;;;;;;5072098;28;20238;-63
2022/05/30 12:46:12;;;;;;;2.15;1.10;;;23.20;42.90;;;;;;5072142;28;20215;-64
2022/05/30 12:48:46;;;;;;;2.15;1.30;;;22.80;43.30;;;;;;5071939;28;20685;-63
2022/05/30 12:51:20;;;;;;;1.08;1.02;;;22.80;43.70;;;;;;5072064;28;20592;-64
2022/05/30 12:53:54;;;;;;;1.25;1.15;;;23.00;43.40;;;;;;5071879;28;20192;-64
2022/05/30 12:56:38;;;;;;;1.40;1.10;;;23.50;43.60;;;;;;5071957;28;20179;-64
2022/05/30 12:59:03;;;;;;;2.78;1.50;;;23.90;43.30;;;;;;5071974;28;20670;-64
2022/05/30 13:01:54;;;;;;;2.85;1.60;;;24.10;41.90;;;;;;5071766;28;20193;-64
2022/05/30 13:04:25;;;;;;;1.85;1.40;;;24.40;43.20;;;;;;5075577;28;20183;-64
2022/05/30 13:07:02;;;;;;;2.85;1.85;;;24.60;42.80;;;;;;5075801;28;20597;-64
2022/05/30 13:09:36;;;;;;;1.65;1.05;;;24.90;42.80;;;;;;5075480;28;20200;-64
2022/05/30 13:12:20;;;;;;;1.65;0.90;;;25.20;41.70;;;;;;5075649;28;20177;-64
2022/05/30 13:14:57;;;;;;;1.40;1.30;;;25.20;41.00;;;;;;5075536;28;20175;-64
2022/05/30 13:17:37;;;;;;;1.08;1.00;;;24.60;40.80;;;;;;5075509;28;20172;-63
2022/05/30 13:20:11;;;;;;;2.13;1.02;;;24.30;41.90;;;;;;5075614;28;20196;-64
2022/05/30 13:22:54;;;;;;;3.40;2.08;;;23.90;42.00;;;;;;5065314;28;20200;-64
2022/05/30 13:25:23;;;;;;;2.15;1.88;;;23.90;40.60;;;;;;5075279;28;20176;-64
2022/05/30 13:27:49;;;;;;;1.10;1.00;;;23.90;40.90;;;;;;5075178;28;20205;-64
2022/05/30 13:30:21;;;;;;;1.38;1.00;;;24.10;41.00;;;;;;5075287;28;20189;-63
2022/05/30 13:32:50;;;;;;;1.30;1.00;;;24.10;40.40;;;;;;5075397;28;20181;-63
2022/05/30 13:35:16;;;;;;;2.00;1.05;;;24.00;41.50;;;;;;5075397;28;20203;-63
2022/05/30 13:37:45;;;;;;;1.65;1.10;;;23.80;41.10;;;;;;5075269;28;20176;-63
2022/05/30 13:40:14;;;;;;;2.05;1.02;;;23.30;41.40;;;;;;5075265;28;20175;-64
2022/05/30 13:42:57;;;;;;;1.30;0.88;;;23.30;40.80;;;;;;5075129;28;20230;-64
2022/05/30 13:45:31;;;;;;;1.05;1.05;;;23.30;40.30;;;;;;5074951;28;20169;-65